Time;durP1;ratioP1;P1;durP2;ratioP2;P2;SDS_P1;SDS_P2;PMS_P1;PMS_P2;Temp;Humidity;BMP_temperature;BMP_pressure;BME280_temperature;BME280_humidity;BME280_pressure;Samples;Min_cycle;Max_cycle;Signal;HPM_P1;HPM_P2
2023/09/09 00:01:34;;;;;;;20.27;18.00;;;;;;;21.71;100.00;101512.72;5031658;28;20054;-66
2023/09/09 00:04:02;;;;;;;21.83;19.48;;;;;;;21.71;100.00;101511.88;5045910;28;20060;-67
2023/09/09 00:06:29;;;;;;;21.95;19.60;;;;;;;21.70;100.00;101515.59;5021503;28;20079;-67
2023/09/09 00:08:56;;;;;;;23.50;19.70;;;;;;;21.65;100.00;101512.72;5025485;28;20092;-67
2023/09/09 00:11:22;;;;;;;23.15;20.77;;;;;;;21.61;100.00;101511.47;5027060;28;20064;-67
2023/09/09 00:13:51;;;;;;;23.77;20.85;;;;;;;21.63;100.00;101517.44;5024188;28;20136;-67
2023/09/09 00:16:18;;;;;;;25.27;21.00;;;;;;;21.60;100.00;101504.47;5031843;28;20160;-67
2023/09/09 00:18:44;;;;;;;27.02;24.15;;;;;;;21.56;100.00;101504.09;5045296;28;20055;-67
2023/09/09 00:21:11;;;;;;;28.60;24.73;;;;;;;21.55;100.00;101502.41;5031221;28;20150;-67
2023/09/09 00:23:38;;;;;;;27.90;24.90;;;;;;;21.52;100.00;101501.00;5019490;28;20045;-67
2023/09/09 00:26:04;;;;;;;27.70;24.70;;;;;;;21.50;100.00;101499.53;5014384;28;20085;-67
2023/09/09 00:28:32;;;;;;;26.08;22.73;;;;;;;21.51;100.00;101507.34;5017661;28;20053;-67
2023/09/09 00:30:59;;;;;;;24.98;22.38;;;;;;;21.47;100.00;101506.09;5020967;28;20423;-67
2023/09/09 00:33:25;;;;;;;28.50;21.10;;;;;;;21.39;100.00;101495.59;5010297;28;20186;-67
2023/09/09 00:35:52;;;;;;;23.55;21.05;;;;;;;21.36;100.00;101492.50;5018092;28;20057;-67
2023/09/09 00:38:18;;;;;;;22.33;19.98;;;;;;;21.33;100.00;101501.72;5012396;28;20532;-67
2023/09/09 00:41:15;;;;;;;24.92;20.45;;;;;;;21.31;100.00;101493.09;5013316;28;20049;-67
2023/09/09 00:43:41;;;;;;;23.37;19.63;;;;;;;21.28;100.00;101493.50;5025352;28;20487;-67
2023/09/09 00:46:08;;;;;;;23.67;20.05;;;;;;;21.24;100.00;101492.25;5017863;28;20287;-67
2023/09/09 00:48:36;;;;;;;25.00;20.73;;;;;;;21.24;100.00;101492.25;5013707;28;20403;-67
2023/09/09 00:51:10;;;;;;;25.77;19.42;;;;;;;21.24;100.00;101493.06;5029104;28;20682;-67
2023/09/09 00:53:36;;;;;;;28.80;20.60;;;;;;;21.20;100.00;101497.16;5008293;28;20041;-67
2023/09/09 00:56:05;;;;;;;22.60;19.63;;;;;;;21.18;100.00;101493.06;5010372;28;20064;-67
2023/09/09 00:58:32;;;;;;;23.58;20.45;;;;;;;21.11;100.00;101495.69;5014915;28;20049;-68
2023/09/09 01:01:01;;;;;;;22.40;19.77;;;;;;;21.11;100.00;101495.69;5016173;28;20049;-65
2023/09/09 01:03:29;;;;;;;22.85;20.40;;;;;;;21.06;100.00;101496.31;5017145;28;20058;-65
2023/09/09 01:05:56;;;;;;;24.90;22.20;;;;;;;21.07;100.00;101497.97;5021782;28;20387;-67
2023/09/09 01:08:26;;;;;;;27.30;22.67;;;;;;;21.05;100.00;101493.81;5004494;28;20096;-67
2023/09/09 01:10:53;;;;;;;26.20;23.02;;;;;;;21.02;100.00;101496.91;5013382;28;20049;-67
2023/09/09 01:13:21;;;;;;;24.25;21.73;;;;;;;21.00;100.00;101496.28;5011626;28;20060;-67
2023/09/09 01:15:47;;;;;;;23.33;20.83;;;;;;;21.00;100.00;101493.63;5016730;28;20069;-67
2023/09/09 01:18:14;;;;;;;25.42;20.77;;;;;;;21.01;100.00;101493.44;5019768;28;20076;-67
2023/09/09 01:20:44;;;;;;;25.00;20.98;;;;;;;20.96;100.00;101493.19;5003976;28;20686;-67
2023/09/09 01:23:11;;;;;;;22.88;19.77;;;;;;;20.96;100.00;101487.03;5013636;28;20050;-67
2023/09/09 01:25:37;;;;;;;21.40;19.10;;;;;;;20.92;100.00;101491.94;5014070;28;20140;-67
2023/09/09 01:28:04;;;;;;;21.67;19.25;;;;;;;20.92;100.00;101489.28;5025287;28;20085;-67
2023/09/09 01:30:31;;;;;;;22.90;19.13;;;;;;;20.89;100.00;101495.00;5027606;28;20095;-67
2023/09/09 01:32:58;;;;;;;26.17;19.30;;;;;;;20.82;100.00;101489.66;5016630;28;20046;-67
2023/09/09 01:35:24;;;;;;;24.27;19.33;;;;;;;20.80;100.00;101485.53;5020118;28;20161;-67
2023/09/09 01:37:51;;;;;;;22.85;19.17;;;;;;;20.81;100.00;101495.97;5015762;28;20053;-67
2023/09/09 01:40:17;;;;;;;20.65;17.40;;;;;;;20.80;100.00;101483.69;5026086;28;20128;-67
2023/09/09 01:42:47;;;;;;;26.15;18.80;;;;;;;20.77;100.00;101489.41;5018997;28;20140;-67
2023/09/09 01:45:14;;;;;;;24.33;17.88;;;;;;;20.73;100.00;101496.97;5025403;28;20056;-67
2023/09/09 01:47:40;;;;;;;22.48;18.65;;;;;;;20.71;100.00;101495.53;5021282;28;20054;-67
2023/09/09 01:50:07;;;;;;;18.40;16.35;;;;;;;20.68;100.00;101490.56;5011267;28;20486;-67
2023/09/09 01:52:33;;;;;;;22.58;17.55;;;;;;;20.61;100.00;101489.75;5015304;28;20056;-67
2023/09/09 01:55:00;;;;;;;21.42;18.23;;;;;;;20.57;100.00;101496.44;5019474;28;20053;-67
2023/09/09 01:57:26;;;;;;;24.10;18.10;;;;;;;20.59;100.00;101491.75;5026684;28;20156;-67
2023/09/09 01:59:54;;;;;;;18.90;16.90;;;;;;;20.58;100.00;101503.41;5018722;28;20507;-67
2023/09/09 02:02:20;;;;;;;23.67;17.60;;;;;;;20.55;100.00;101493.97;5021702;28;20049;-67
2023/09/09 02:04:47;;;;;;;22.25;17.65;;;;;;;20.52;100.00;101492.53;5013400;28;20049;-67
2023/09/09 02:07:13;;;;;;;20.10;16.95;;;;;;;20.52;100.00;101492.53;5019651;28;20064;-67
2023/09/09 02:09:41;;;;;;;18.23;16.33;;;;;;;20.52;100.00;101491.69;5026153;28;20057;-67
2023/09/09 02:12:07;;;;;;;19.30;16.83;;;;;;;20.50;100.00;101491.06;5011449;28;20045;-67
2023/09/09 02:14:34;;;;;;;20.50;16.60;;;;;;;20.48;100.00;101493.94;5022825;28;20061;-67
2023/09/09 02:17:02;;;;;;;19.58;17.55;;;;;;;20.44;100.00;101484.66;5013991;28;20045;-67
2023/09/09 02:19:28;;;;;;;24.45;16.92;;;;;;;20.43;100.00;101487.56;5010821;28;20045;-67
2023/09/09 02:21:55;;;;;;;19.05;16.98;;;;;;;20.42;100.00;101489.38;5024075;28;20068;-67
2023/09/09 02:24:22;;;;;;;18.50;16.52;;;;;;;20.43;100.00;101488.38;5002259;28;20465;-67
2023/09/09 02:26:48;;;;;;;18.95;17.05;;;;;;;20.44;100.00;101487.34;5020567;28;20140;-67
2023/09/09 02:29:17;;;;;;;18.42;16.20;;;;;;;20.45;100.00;101474.84;5020191;28;20140;-67
2023/09/09 02:31:45;;;;;;;21.75;16.45;;;;;;;20.46;100.00;101479.16;5016944;28;20053;-67
2023/09/09 02:34:11;;;;;;;18.35;16.45;;;;;;;20.45;100.00;101477.53;5011380;28;20522;-67
2023/09/09 02:36:42;;;;;;;18.17;16.27;;;;;;;20.46;100.00;101476.50;5016790;28;20565;-67
2023/09/09 02:39:09;;;;;;;19.65;16.35;;;;;;;20.42;100.00;101475.25;5025100;28;20077;-67
2023/09/09 02:41:36;;;;;;;21.30;16.77;;;;;;;20.39;100.00;101476.47;5019265;28;20865;-67
2023/09/09 02:44:03;;;;;;;19.25;16.58;;;;;;;20.37;100.00;101480.34;5020689;28;20064;-67
2023/09/09 02:46:29;;;;;;;20.17;17.10;;;;;;;20.33;100.00;101475.41;5017068;28;20064;-67
2023/09/09 02:48:55;;;;;;;19.50;16.45;;;;;;;20.27;100.00;101478.84;5026697;28;20045;-67
2023/09/09 02:51:22;;;;;;;18.17;16.27;;;;;;;20.22;100.00;101480.44;5006627;28;20136;-67
2023/09/09 02:53:48;;;;;;;18.27;15.43;;;;;;;20.18;100.00;101477.34;5006568;28;20128;-68
2023/09/09 02:56:15;;;;;;;19.83;14.57;;;;;;;20.17;100.00;101481.03;5015657;28;20095;-67
2023/09/09 02:58:41;;;;;;;16.38;14.57;;;;;;;20.18;100.00;101466.69;4997425;28;20147;-67
2023/09/09 03:01:08;;;;;;;19.67;15.05;;;;;;;20.20;100.00;101474.50;5021067;28;20049;-67
2023/09/09 03:03:34;;;;;;;16.70;14.65;;;;;;;20.15;100.00;101473.22;5009688;28;20144;-67
2023/09/09 03:06:01;;;;;;;17.73;15.52;;;;;;;20.10;100.00;101477.50;5014491;28;20510;-67
2023/09/09 03:08:29;;;;;;;19.13;16.48;;;;;;;20.08;100.00;101477.66;5014411;28;20646;-68
2023/09/09 03:10:55;;;;;;;17.53;15.67;;;;;;;20.07;100.00;101475.19;5020882;28;20057;-67
2023/09/09 03:13:22;;;;;;;20.98;16.67;;;;;;;20.05;100.00;101475.41;5019442;28;20056;-67
2023/09/09 03:15:48;;;;;;;21.75;16.45;;;;;;;20.04;100.00;101472.94;5017823;28;20617;-67
2023/09/09 03:18:15;;;;;;;19.10;16.65;;;;;;;20.02;100.00;101486.44;5024924;28;20128;-68
2023/09/09 03:20:42;;;;;;;20.02;16.13;;;;;;;19.99;100.00;101478.00;5020531;28;20049;-67
2023/09/09 03:23:08;;;;;;;17.75;15.18;;;;;;;19.97;100.00;101475.53;5018599;28;20061;-67
2023/09/09 03:25:35;;;;;;;16.58;14.50;;;;;;;19.92;100.00;101478.78;5006407;28;20053;-68
2023/09/09 03:28:02;;;;;;;17.10;15.30;;;;;;;19.88;100.00;101474.03;5020086;28;20047;-67
2023/09/09 03:30:55;;;;;;;20.67;15.07;;;;;;;19.87;100.00;101480.38;5014344;28;20050;-67
2023/09/09 03:33:22;;;;;;;19.13;15.85;;;;;;;19.86;100.00;101478.72;5011092;28;20458;-67
2023/09/09 03:35:49;;;;;;;20.25;16.35;;;;;;;19.86;100.00;101479.56;5012938;28;20050;-67
2023/09/09 03:38:16;;;;;;;15.82;14.05;;;;;;;19.85;100.00;101479.72;5008682;28;20075;-67
2023/09/09 03:40:42;;;;;;;18.42;16.25;;;;;;;19.86;100.00;101476.06;5021489;28;20503;-67
2023/09/09 03:43:09;;;;;;;20.67;16.65;;;;;;;19.83;100.00;101477.25;5011716;28;20064;-67
2023/09/09 03:45:35;;;;;;;20.80;17.20;;;;;;;19.83;100.00;101476.44;5024768;28;20080;-67
2023/09/09 03:48:04;;;;;;;18.60;15.93;;;;;;;19.80;100.00;101474.16;5021895;28;20069;-67
2023/09/09 03:50:31;;;;;;;20.85;16.10;;;;;;;19.81;100.00;101471.31;5020062;28;20157;-67
2023/09/09 03:52:57;;;;;;;20.30;16.48;;;;;;;19.81;100.00;101475.81;5018252;28;20053;-67
2023/09/09 03:55:25;;;;;;;19.33;16.98;;;;;;;19.80;100.00;101476.81;5006061;28;20089;-67
2023/09/09 03:57:54;;;;;;;17.80;15.35;;;;;;;19.80;100.00;101477.66;5012254;28;20048;-67
2023/09/09 04:00:21;;;;;;;17.65;15.80;;;;;;;19.80;100.00;101475.00;5011590;28;20051;-67
2023/09/09 04:02:47;;;;;;;23.52;16.02;;;;;;;19.77;100.00;101478.03;5004752;28;20525;-67
2023/09/09 04:05:14;;;;;;;20.98;16.55;;;;;;;19.74;100.00;101479.25;5006846;28;20497;-67
2023/09/09 04:07:43;;;;;;;20.98;17.23;;;;;;;19.72;100.00;101481.28;5014436;28;20053;-67
2023/09/09 04:10:11;;;;;;;21.38;17.13;;;;;;;19.70;100.00;101477.13;5024275;28;20045;-67
2023/09/09 04:12:38;;;;;;;20.58;17.42;;;;;;;19.69;100.00;101483.47;5020322;28;20425;-67
2023/09/09 04:15:06;;;;;;;21.70;18.33;;;;;;;19.69;100.00;101480.78;5015951;28;20072;-66
2023/09/09 04:17:33;;;;;;;;;;;;;;;19.68;100.00;101485.31;5023265;28;20414;-67
2023/09/09 04:19:59;;;;;;;21.27;17.63;;;;;;;19.66;100.00;101489.16;5019894;28;20224;-67
2023/09/09 04:22:26;;;;;;;20.08;17.42;;;;;;;19.63;100.00;101484.22;5025570;28;20560;-67
2023/09/09 04:24:56;;;;;;;20.08;17.98;;;;;;;19.60;100.00;101485.44;5019562;28;20084;-67
2023/09/09 04:27:23;;;;;;;24.15;18.48;;;;;;;19.59;100.00;101483.78;5028823;28;20056;-67
2023/09/09 04:29:49;;;;;;;21.52;18.02;;;;;;;19.54;100.00;101487.00;5017690;28;20046;-67
2023/09/09 04:32:16;;;;;;;20.80;17.73;;;;;;;19.49;100.00;101484.09;5013389;28;20755;-67
2023/09/09 04:34:42;;;;;;;19.60;17.52;;;;;;;19.51;100.00;101489.22;5008635;28;20050;-67
2023/09/09 04:37:09;;;;;;;21.10;18.88;;;;;;;19.47;100.00;101485.31;5007922;28;20077;-67
2023/09/09 04:39:35;;;;;;;21.75;18.27;;;;;;;19.44;100.00;101483.81;5010502;28;20467;-67
2023/09/09 04:42:01;;;;;;;22.42;18.40;;;;;;;19.41;100.00;101486.88;5005316;28;20050;-67
2023/09/09 04:44:28;;;;;;;21.10;18.90;;;;;;;19.36;100.00;101479.44;5021428;28;20099;-67
2023/09/09 04:46:54;;;;;;;20.48;18.27;;;;;;;19.34;100.00;101486.78;5007620;28;20129;-67
2023/09/09 04:49:22;;;;;;;22.50;18.13;;;;;;;19.32;100.00;101485.34;5014559;28;20417;-67
2023/09/09 04:51:49;;;;;;;20.08;17.95;;;;;;;19.30;100.00;101487.34;5005496;28;20054;-68
2023/09/09 04:54:17;;;;;;;22.95;19.35;;;;;;;19.26;100.00;101481.59;5010351;28;20053;-67
2023/09/09 04:56:44;;;;;;;;;;;;;;;19.27;100.00;101488.56;5011457;28;20053;-67
2023/09/09 04:59:10;;;;;;;22.38;19.50;;;;;;;19.27;100.00;101490.41;5002939;28;19928;-67
2023/09/09 05:01:37;;;;;;;25.98;19.92;;;;;;;19.26;100.00;101488.75;5015872;28;20119;-67
2023/09/09 05:04:04;;;;;;;21.80;19.05;;;;;;;19.25;100.00;101487.94;5020721;28;20045;-68
2023/09/09 05:06:31;;;;;;;23.02;19.35;;;;;;;19.24;100.00;101488.13;5030009;28;20057;-67
2023/09/09 05:08:57;;;;;;;21.75;19.15;;;;;;;19.24;100.00;101490.78;5017821;28;20100;-68
2023/09/09 05:11:24;;;;;;;23.58;19.40;;;;;;;19.22;100.00;101498.13;5022257;28;20061;-68
2023/09/09 05:13:50;;;;;;;22.55;20.10;;;;;;;19.19;100.00;101496.66;5013257;28;20079;-68
2023/09/09 05:16:17;;;;;;;31.23;26.35;;;;;;;19.23;100.00;101492.63;5020547;28;20114;-68
2023/09/09 05:18:43;;;;;;;29.35;24.83;;;;;;;19.27;100.00;101493.06;5022157;28;20050;-68
2023/09/09 05:21:09;;;;;;;32.60;25.45;;;;;;;19.31;100.00;101507.63;5021975;28;20132;-68
2023/09/09 05:23:36;;;;;;;42.85;31.20;;;;;;;19.34;100.00;101504.59;5027175;28;20049;-67
2023/09/09 05:26:03;;;;;;;39.40;31.00;;;;;;;19.43;100.00;101513.28;5013069;28;20050;-68
2023/09/09 05:28:29;;;;;;;57.35;43.03;;;;;;;19.46;100.00;101516.38;5020355;28;20490;-68
2023/09/09 05:30:56;;;;;;;69.60;52.15;;;;;;;19.46;100.00;101508.41;5008996;28;20085;-68
2023/09/09 05:33:22;;;;;;;89.45;41.10;;;;;;;19.48;100.00;101519.69;5022265;28;20140;-67
2023/09/09 05:35:50;;;;;;;244.60;58.35;;;;;;;19.52;100.00;101512.13;5028007;28;20554;-67
2023/09/09 05:38:17;;;;;;;107.97;57.08;;;;;;;19.53;100.00;101519.94;5013264;28;20164;-67
2023/09/09 05:40:43;;;;;;;212.43;54.47;;;;;;;19.50;100.00;101525.66;5028602;28;20108;-67
2023/09/09 05:43:09;;;;;;;112.00;58.35;;;;;;;19.52;100.00;101517.47;5019491;28;20062;-67
2023/09/09 05:45:36;;;;;;;172.13;61.15;;;;;;;19.53;100.00;101529.78;5018380;28;20466;-67
2023/09/09 05:48:03;;;;;;;133.70;58.20;;;;;;;19.48;100.00;101524.19;5027322;28;20346;-68
2023/09/09 05:50:29;;;;;;;308.45;58.47;;;;;;;19.46;100.00;101518.22;5021524;28;20136;-67
2023/09/09 05:52:56;;;;;;;225.88;62.38;;;;;;;19.45;100.00;101525.38;5020625;28;20569;-67
2023/09/09 05:55:26;;;;;;;142.57;61.40;;;;;;;19.43;100.00;101526.59;5011542;28;20053;-68
2023/09/09 05:57:53;;;;;;;303.27;64.07;;;;;;;19.38;100.00;101526.31;5021672;28;20119;-67
2023/09/09 06:00:20;;;;;;;246.10;65.38;;;;;;;19.36;100.00;101535.28;5023226;28;20160;-67
2023/09/09 06:02:46;;;;;;;258.08;65.47;;;;;;;19.36;100.00;101532.63;5018654;28;20454;-67
2023/09/09 06:05:15;;;;;;;119.60;62.97;;;;;;;19.38;100.00;101537.78;5023747;28;20092;-67
2023/09/09 06:07:41;;;;;;;475.25;69.45;;;;;;;19.33;100.00;101537.53;4998270;28;20466;-67
2023/09/09 06:10:08;;;;;;;191.63;58.50;;;;;;;19.30;100.00;101541.38;5003899;28;20053;-67
2023/09/09 06:12:35;;;;;;;106.18;60.28;;;;;;;19.38;100.00;101542.28;5019167;28;20542;-67
2023/09/09 06:15:01;;;;;;;72.97;57.00;;;;;;;19.48;100.00;101551.63;5024271;28;21041;-68
2023/09/09 06:17:27;;;;;;;133.95;60.50;;;;;;;19.59;100.00;101544.16;5026701;28;20055;-67
2023/09/09 06:19:54;;;;;;;411.38;62.30;;;;;;;19.62;100.00;101554.41;5018622;28;20053;-68
2023/09/09 06:22:20;;;;;;;301.85;63.63;;;;;;;19.57;100.00;101549.66;5021922;28;20045;-67
2023/09/09 06:24:47;;;;;;;177.00;63.45;;;;;;;19.59;100.00;101546.81;5008094;28;20577;-67
2023/09/09 06:27:13;;;;;;;228.73;62.00;;;;;;;19.54;100.00;101558.00;5024187;28;20084;-67
2023/09/09 06:29:40;;;;;;;123.30;64.32;;;;;;;19.55;100.00;101557.00;5020548;28;20466;-67
2023/09/09 06:32:09;;;;;;;133.10;57.00;;;;;;;19.59;100.00;101552.97;5020871;28;20050;-67
2023/09/09 06:34:36;;;;;;;156.10;58.60;;;;;;;19.63;100.00;101559.56;5019462;28;20061;-67
2023/09/09 06:37:03;;;;;;;95.25;62.28;;;;;;;19.63;100.00;101564.88;4999603;28;20410;-67
2023/09/09 06:39:29;;;;;;;127.88;60.40;;;;;;;19.61;100.00;101563.44;5010630;28;20046;-67
2023/09/09 06:41:56;;;;;;;413.23;64.30;;;;;;;19.45;100.00;101567.13;5011202;28;20084;-67
2023/09/09 06:44:23;;;;;;;148.43;61.40;;;;;;;19.31;100.00;101566.97;5017062;28;20053;-67
2023/09/09 06:46:50;;;;;;;138.85;60.03;;;;;;;19.39;100.00;101570.56;5017462;28;20606;-68
2023/09/09 06:49:17;;;;;;;188.73;61.08;;;;;;;19.43;100.00;101569.97;5016250;28;20486;-68
2023/09/09 06:51:43;;;;;;;133.50;59.95;;;;;;;19.52;100.00;101576.00;5007517;28;20057;-68
2023/09/09 06:54:10;;;;;;;103.85;55.42;;;;;;;19.61;100.00;101580.22;5017768;28;20172;-67
2023/09/09 06:56:37;;;;;;;178.82;60.95;;;;;;;19.50;100.00;101584.19;5026008;28;20601;-67
2023/09/09 06:59:03;;;;;;;86.28;60.25;;;;;;;19.46;100.00;101584.72;5017856;28;20076;-67
2023/09/09 07:01:30;;;;;;;95.50;60.58;;;;;;;19.49;100.00;101590.50;5025988;28;20132;-67
2023/09/09 07:03:57;;;;;;;75.50;54.40;;;;;;;19.50;100.00;101586.84;4996715;28;20479;-67
2023/09/09 07:06:24;;;;;;;83.22;58.55;;;;;;;19.56;100.00;101594.09;5019457;28;20115;-67
2023/09/09 07:08:52;;;;;;;69.55;54.92;;;;;;;19.77;100.00;101591.66;5024420;28;20125;-67
2023/09/09 07:11:18;;;;;;;82.63;52.00;;;;;;;19.92;100.00;101585.28;5019423;28;20064;-67
2023/09/09 07:13:45;;;;;;;58.25;49.47;;;;;;;20.07;100.00;101587.03;5024117;28;20077;-67
2023/09/09 07:16:11;;;;;;;99.53;55.75;;;;;;;20.01;100.00;101587.81;5016302;28;20049;-67
2023/09/09 07:18:38;;;;;;;69.15;57.05;;;;;;;20.05;100.00;101594.41;5015693;28;20236;-67
2023/09/09 07:21:04;;;;;;;77.13;58.33;;;;;;;20.13;100.00;101589.78;5018157;28;20049;-67
2023/09/09 07:23:30;;;;;;;84.15;58.33;;;;;;;20.19;100.00;101590.03;5024959;28;20059;-68
2023/09/09 07:25:57;;;;;;;123.93;60.30;;;;;;;20.05;100.00;101591.75;5008941;28;20096;-67
2023/09/09 07:28:24;;;;;;;120.75;60.33;;;;;;;20.11;100.00;101593.63;5010485;28;20053;-67
2023/09/09 07:30:51;;;;;;;114.18;63.08;;;;;;;20.13;100.00;101592.44;5006820;28;20487;-67
2023/09/09 07:33:18;;;;;;;152.73;57.75;;;;;;;20.08;100.00;101588.72;5006884;28;20099;-68
2023/09/09 07:35:45;;;;;;;87.60;58.75;;;;;;;20.24;100.00;101598.28;5023991;28;20057;-68
2023/09/09 07:38:12;;;;;;;101.90;64.57;;;;;;;20.26;100.00;101596.25;5019524;28;20409;-67
2023/09/09 07:40:38;;;;;;;215.32;69.30;;;;;;;20.20;100.00;101602.34;5023888;28;20064;-68
2023/09/09 07:43:05;;;;;;;178.75;69.15;;;;;;;20.18;100.00;101604.38;5023333;28;20455;-67
2023/09/09 07:45:32;;;;;;;221.20;71.75;;;;;;;20.21;100.00;101596.81;5002667;28;20140;-67
2023/09/09 07:47:58;;;;;;;182.90;73.25;;;;;;;20.27;100.00;101601.38;5015797;28;20096;-68
2023/09/09 07:50:25;;;;;;;208.05;67.82;;;;;;;20.35;100.00;101606.56;5024387;28;20721;-68
2023/09/09 07:52:52;;;;;;;124.78;71.28;;;;;;;20.45;100.00;101608.09;5026820;28;20049;-67
2023/09/09 07:55:18;;;;;;;98.57;68.25;;;;;;;20.59;100.00;101606.34;5024151;28;20114;-68
2023/09/09 07:57:45;;;;;;;99.57;68.97;;;;;;;20.72;100.00;101601.97;5017933;28;20052;-68
2023/09/09 08:00:11;;;;;;;109.72;68.18;;;;;;;20.87;100.00;101609.84;5021581;28;20132;-68
2023/09/09 08:02:38;;;;;;;102.35;69.35;;;;;;;20.93;100.00;101608.25;5018988;28;20093;-67
2023/09/09 08:05:06;;;;;;;105.68;70.32;;;;;;;20.97;100.00;101611.34;5027653;28;20057;-67
2023/09/09 08:07:33;;;;;;;116.13;73.13;;;;;;;21.02;100.00;101611.59;4997888;28;20060;-68
2023/09/09 08:09:59;;;;;;;103.18;69.60;;;;;;;21.01;100.00;101610.78;5018642;28;20037;-67
2023/09/09 08:12:26;;;;;;;100.13;70.15;;;;;;;21.07;100.00;101611.81;5021069;28;20141;-67
2023/09/09 08:15:10;;;;;;;100.43;69.25;;;;;;;21.22;100.00;101614.34;5010374;28;20113;-67
2023/09/09 08:17:37;;;;;;;93.75;66.07;;;;;;;21.21;100.00;101620.69;5020046;28;20053;-67
2023/09/09 08:20:07;;;;;;;111.75;74.68;;;;;;;21.10;100.00;101617.56;5016548;28;20139;-67
2023/09/09 08:22:34;;;;;;;91.15;63.08;;;;;;;21.06;100.00;101613.66;5021896;28;20418;-68
2023/09/09 08:25:01;;;;;;;104.55;74.38;;;;;;;21.04;100.00;101620.22;5017525;28;20543;-68
2023/09/09 08:27:28;;;;;;;108.80;73.60;;;;;;;21.01;100.00;101623.25;5018128;28;20076;-68
2023/09/09 08:29:56;;;;;;;105.95;74.65;;;;;;;20.98;100.00;101626.34;5013398;28;20215;-69
2023/09/09 08:32:22;;;;;;;99.07;70.25;;;;;;;21.09;100.00;101629.28;5017876;28;20145;-69
2023/09/09 08:34:52;;;;;;;108.10;74.50;;;;;;;21.15;100.00;101630.34;5021653;28;20053;-66
2023/09/09 08:37:19;;;;;;;106.28;74.25;;;;;;;21.22;100.00;101635.69;5017697;28;20148;-67
2023/09/09 08:39:46;;;;;;;102.85;74.68;;;;;;;21.16;100.00;101629.31;5022164;28;20573;-69
2023/09/09 08:42:27;;;;;;;102.63;74.95;;;;;;;21.18;100.00;101640.59;5007947;28;20068;-67
2023/09/09 08:45:05;;;;;;;98.78;73.40;;;;;;;21.25;100.00;101638.81;5018965;28;20487;-66
2023/09/09 08:47:35;;;;;;;93.75;69.00;;;;;;;21.44;100.00;101633.78;5016414;28;20054;-67
2023/09/09 08:50:04;;;;;;;95.90;71.22;;;;;;;21.60;100.00;101641.47;5022348;28;20194;-66
2023/09/09 08:52:30;;;;;;;98.05;72.38;;;;;;;21.64;100.00;101648.03;5022548;28;20049;-66
2023/09/09 08:54:57;;;;;;;90.88;64.40;;;;;;;21.83;100.00;101648.31;5011052;28;20068;-66
2023/09/09 08:57:25;;;;;;;98.57;73.43;;;;;;;21.85;100.00;101649.75;5018884;28;20140;-66
2023/09/09 08:59:53;;;;;;;97.18;71.40;;;;;;;22.03;100.00;101654.53;5009056;28;20563;-66
2023/09/09 09:02:20;;;;;;;99.25;75.68;;;;;;;22.08;100.00;101653.91;5025033;28;20478;-66
2023/09/09 09:04:48;;;;;;;99.77;73.73;;;;;;;22.17;100.00;101655.38;5015579;28;20080;-67
2023/09/09 09:07:15;;;;;;;;;;;;;;;22.31;100.00;101643.69;5016319;28;20073;-67
2023/09/09 09:09:42;;;;;;;86.40;65.50;;;;;;;22.42;100.00;101654.81;5023439;28;20020;-67
2023/09/09 09:12:11;;;;;;;96.10;72.78;;;;;;;22.48;100.00;101649.47;5016505;28;20136;-67
2023/09/09 09:14:47;;;;;;;95.13;74.78;;;;;;;22.68;100.00;101649.47;5024402;28;20526;-67
2023/09/09 09:17:17;;;;;;;96.43;71.97;;;;;;;22.83;100.00;101643.06;5017863;28;20045;-67
2023/09/09 09:19:43;;;;;;;93.88;70.60;;;;;;;22.99;100.00;101648.00;5019687;28;20049;-67
2023/09/09 09:22:13;;;;;;;80.88;63.42;;;;;;;23.25;100.00;101646.31;5010350;28;20099;-68
2023/09/09 09:24:42;;;;;;;86.32;67.65;;;;;;;23.34;100.00;101647.69;5023274;28;20049;-67
2023/09/09 09:27:13;;;;;;;83.28;64.35;;;;;;;23.63;100.00;101641.00;5021224;28;20053;-67
2023/09/09 09:29:48;;;;;;;89.07;67.68;;;;;;;23.80;100.00;101641.38;5018209;28;20572;-67
2023/09/09 09:32:16;;;;;;;92.65;71.45;;;;;;;23.87;100.00;101642.16;5023463;28;20060;-68
2023/09/09 09:34:43;;;;;;;85.80;66.43;;;;;;;23.97;100.00;101640.84;5010835;28;20554;-67
2023/09/09 09:37:11;;;;;;;76.77;62.70;;;;;;;24.22;100.00;101644.38;5020134;28;20138;-66
2023/09/09 09:39:39;;;;;;;82.50;63.80;;;;;;;24.30;100.00;101635.25;5017581;28;20553;-67
2023/09/09 09:42:06;;;;;;;78.93;63.15;;;;;;;24.42;100.00;101632.69;5022472;28;20049;-66
2023/09/09 09:44:32;;;;;;;87.50;64.20;;;;;;;24.54;100.00;101635.50;5022467;28;20049;-66
2023/09/09 09:47:08;;;;;;;77.88;62.75;;;;;;;24.70;100.00;101639.47;5012474;28;20474;-66
2023/09/09 09:49:40;;;;;;;78.32;64.30;;;;;;;24.88;100.00;101639.53;5019067;28;20049;-66
2023/09/09 09:52:07;;;;;;;78.00;62.35;;;;;;;24.95;100.00;101639.44;5012699;28;20669;-66
2023/09/09 09:54:35;;;;;;;;;;;;;;;25.16;100.00;101630.16;5021871;28;20057;-67
2023/09/09 09:57:04;;;;;;;70.63;56.20;;;;;;;25.37;100.00;101634.28;5015414;28;20274;-67
2023/09/09 09:59:35;;;;;;;74.10;58.25;;;;;;;25.39;100.00;101633.00;5019502;28;20408;-66
2023/09/09 10:02:05;;;;;;;67.45;54.80;;;;;;;25.42;100.00;101642.47;5016364;28;20045;-67
2023/09/09 10:04:42;;;;;;;57.28;47.55;;;;;;;25.70;100.00;101641.91;5011681;28;20094;-67
2023/09/09 10:07:11;;;;;;;68.32;54.55;;;;;;;26.00;100.00;101639.22;5019134;28;20045;-67
2023/09/09 10:10:12;;;;;;;59.33;48.47;;;;;;;26.10;100.00;101644.03;5016805;28;20140;-67
2023/09/09 10:12:54;;;;;;;59.72;51.40;;;;;;;26.27;100.00;101646.06;5022483;28;20132;-67
2023/09/09 10:15:21;;;;;;;56.47;47.03;;;;;;;26.47;100.00;101643.06;5011293;28;20207;-67
2023/09/09 10:17:52;;;;;;;59.65;50.65;;;;;;;26.66;100.00;101633.00;5016099;28;20057;-67
2023/09/09 10:20:19;;;;;;;50.90;43.42;;;;;;;26.79;98.73;101633.59;5016020;28;20060;-67
2023/09/09 10:22:48;;;;;;;52.67;44.78;;;;;;;27.00;100.00;101636.75;5022146;28;20068;-67
2023/09/09 10:25:16;;;;;;;52.30;45.88;;;;;;;27.29;98.93;101634.16;5023168;28;20479;-68
2023/09/09 10:27:44;;;;;;;;;;;;;;;27.61;99.25;101627.22;5014061;28;20056;-67
2023/09/09 10:30:11;;;;;;;56.50;45.55;;;;;;;27.87;97.13;101624.97;5016672;28;19925;-67
2023/09/09 10:32:38;;;;;;;51.83;43.65;;;;;;;28.01;93.99;101625.50;5011162;28;20145;-68
2023/09/09 10:35:06;;;;;;;44.00;35.72;;;;;;;28.16;89.14;101617.69;5025013;28;20580;-68
2023/09/09 10:37:34;;;;;;;;;;;;;;;28.36;87.27;101625.31;5019309;28;20556;-67
2023/09/09 10:40:03;;;;;;;39.85;32.88;;;;;;;28.67;87.26;101614.97;5022473;28;20012;-67
2023/09/09 10:42:30;;;;;;;38.30;33.00;;;;;;;28.72;81.67;101623.16;5022683;28;20065;-67
2023/09/09 10:45:17;;;;;;;;;;;;;;;29.02;82.92;101626.50;5009065;28;20501;-67
2023/09/09 10:47:52;;;;;;;34.03;30.07;;;;;;;29.31;81.93;101624.47;5022585;28;20416;-67
2023/09/09 10:50:20;;;;;;;32.45;28.88;;;;;;;29.53;81.98;101622.53;5017305;28;20053;-67
2023/09/09 10:52:51;;;;;;;31.88;27.15;;;;;;;29.79;80.75;101630.91;5023778;28;20049;-68
2023/09/09 10:55:27;;;;;;;34.38;30.67;;;;;;;29.80;75.33;101618.25;5017393;28;20059;-67
2023/09/09 10:57:57;;;;;;;38.58;34.50;;;;;;;29.63;72.33;101629.13;5016955;28;20081;-67
2023/09/09 11:00:40;;;;;;;34.35;30.80;;;;;;;29.52;74.13;101626.31;5015230;28;20049;-67
2023/09/09 11:03:13;;;;;;;32.30;26.98;;;;;;;29.39;78.27;101626.72;5023179;28;20077;-67
2023/09/09 11:05:59;;;;;;;32.00;28.63;;;;;;;29.57;73.34;101625.53;5022403;28;20059;-67